^^
Datos históricos de la estación: Murcia-Puente Tocinos
Diario Informe para Agosto 03, 2021 Unidades:  Ambas    Ingés   Métrico
Diario Semanal Mensual Anual
  Máxima: Mínima: Promedio:
Temperatura: 87.8 °F /  31 °C 70.9 °F /  21.6 °C 79 °F /  26.1 °C
Punto de rocio: 68.2 °F /  20.1 °C 54 °F /  12.2 °C 63.3 °F /  17.4 °C
Humedad: 83% 31.7% 62%
Velocidad viento: 11.4mph /  18.4km/h - 4.7mph /  7.6km/h
Racha viento: 21mph /  33.8km/h - -
Viento- - SE
Presión: 30 in /  1016.1 hPa 29.9 in /  1012.3 hPa -
Precipitación: 0 in /  0.0 mm    
 
 
Tabla de datos para Agosto 03, 2021
Hora Temperatura Punto de rocio Presión Viento Velocidad viento Racha viento Humedad Intensidad lluvia(por hora) Nubes
00:04 75.4 °F /  24.1 °C 68 °F /  20 °C 30in /  1015.1hPa NE 3.6mph /  5.8km/h 6mph /  9.7km/h 78% 0in /  0.0mm
00:09 75.4 °F /  24.1 °C 68 °F /  20 °C 30in /  1015.1hPa NNE 3.6mph /  5.8km/h 5.2mph /  8.4km/h 78% 0in /  0.0mm
00:14 75 °F /  23.9 °C 67.8 °F /  19.9 °C 30in /  1015.0hPa NE 3.6mph /  5.8km/h 6.4mph /  10.3km/h 78% 0in /  0.0mm
00:19 75 °F /  23.9 °C 67.6 °F /  19.8 °C 30in /  1015.0hPa NE 3.6mph /  5.8km/h 7mph /  11.3km/h 78% 0in /  0.0mm
00:24 75 °F /  23.9 °C 67.6 °F /  19.8 °C 30in /  1015.1hPa NE 3.6mph /  5.8km/h 6mph /  9.7km/h 78% 0in /  0.0mm
00:29 74.8 °F /  23.8 °C 67.8 °F /  19.9 °C 30in /  1015.1hPa NE 4mph /  6.5km/h 6.4mph /  10.3km/h 78.8% 0in /  0.0mm
00:34 75 °F /  23.9 °C 68.2 °F /  20.1 °C 30in /  1015.1hPa ENE 4.3mph /  6.9km/h 6.9mph /  11.1km/h 79% 0in /  0.0mm
00:39 75 °F /  23.9 °C 68.2 °F /  20.1 °C 30in /  1015.1hPa NE 3.6mph /  5.8km/h 7mph /  11.3km/h 79% 0in /  0.0mm
00:44 75 °F /  23.9 °C 68.2 °F /  20.1 °C 30in /  1015.1hPa ENE 3.1mph /  5km/h 6mph /  9.7km/h 79% 0in /  0.0mm
00:49 74.8 °F /  23.8 °C 68 °F /  20 °C 30in /  1015.1hPa ENE 2.7mph /  4.3km/h 4.3mph /  6.9km/h 79% 0in /  0.0mm
00:54 74.8 °F /  23.8 °C 67.8 °F /  19.9 °C 30in /  1015.2hPa NE 2.4mph /  3.9km/h 5mph /  8km/h 79% 0in /  0.0mm
00:59 74.8 °F /  23.8 °C 67.8 °F /  19.9 °C 30in /  1015.2hPa NE 2.1mph /  3.4km/h 5mph /  8km/h 79% 0in /  0.0mm
01:04 74.8 °F /  23.8 °C 67.8 °F /  19.9 °C 30in /  1015.2hPa NE 2mph /  3.2km/h 5.8mph /  9.3km/h 79% 0in /  0.0mm
01:09 74.8 °F /  23.8 °C 67.8 °F /  19.9 °C 30in /  1015.2hPa NE 2.7mph /  4.3km/h 6mph /  9.7km/h 79% 0in /  0.0mm
01:14 74.8 °F /  23.8 °C 67.8 °F /  19.9 °C 30in /  1015.2hPa Este 3.1mph /  5km/h 5mph /  8km/h 79% 0in /  0.0mm
01:19 74.8 °F /  23.8 °C 67.8 °F /  19.9 °C 30in /  1015.2hPa Este 2.2mph /  3.6km/h 3mph /  4.8km/h 79% 0in /  0.0mm
01:24 74.8 °F /  23.8 °C 67.8 °F /  19.9 °C 30in /  1015.3hPa Este 1.8mph /  2.9km/h 3.6mph /  5.8km/h 79% 0in /  0.0mm
01:29 74.8 °F /  23.8 °C 67.8 °F /  19.9 °C 30in /  1015.3hPa NE 1.6mph /  2.5km/h 4mph /  6.4km/h 79% 0in /  0.0mm
01:34 74.7 °F /  23.7 °C 67.6 °F /  19.8 °C 30in /  1015.3hPa NO 1.4mph /  2.2km/h 4.6mph /  7.4km/h 79% 0in /  0.0mm
01:39 74.7 °F /  23.7 °C 67.6 °F /  19.8 °C 30in /  1015.3hPa NO 2mph /  3.2km/h 5mph /  8km/h 79% 0in /  0.0mm
01:44 74.7 °F /  23.7 °C 67.6 °F /  19.8 °C 30in /  1015.2hPa NO 2.4mph /  3.9km/h 5mph /  8km/h 79% 0in /  0.0mm
01:49 74.7 °F /  23.7 °C 67.6 °F /  19.8 °C 30in /  1015.2hPa NO 2.1mph /  3.3km/h 4mph /  6.4km/h 79% 0in /  0.0mm
01:54 74.5 °F /  23.6 °C 67.5 °F /  19.7 °C 30in /  1015.2hPa NO 1.8mph /  2.9km/h 5mph /  8km/h 79.1% 0in /  0.0mm
01:59 74.5 °F /  23.6 °C 67.5 °F /  19.7 °C 30in /  1015.2hPa NO 2.2mph /  3.5km/h 5mph /  8km/h 79% 0in /  0.0mm
02:04 74.5 °F /  23.6 °C 67.5 °F /  19.7 °C 30in /  1015.2hPa NO 2.4mph /  3.9km/h 4mph /  6.4km/h 79% 0in /  0.0mm
02:09 74.5 °F /  23.6 °C 67.5 °F /  19.7 °C 30in /  1015.2hPa NO 2mph /  3.2km/h 3mph /  4.8km/h 79% 0in /  0.0mm
02:14 74.5 °F /  23.6 °C 67.6 °F /  19.8 °C 30in /  1015.0hPa NO 1.8mph /  2.9km/h 2.3mph /  3.7km/h 79.2% 0in /  0.0mm
02:19 74.5 °F /  23.6 °C 67.6 °F /  19.8 °C 30in /  1015.0hPa NE 1.6mph /  2.5km/h 3.6mph /  5.8km/h 79.4% 0in /  0.0mm
02:24 74.3 °F /  23.5 °C 67.6 °F /  19.8 °C 30in /  1015.0hPa NE 1.4mph /  2.2km/h 4mph /  6.4km/h 80% 0in /  0.0mm
02:29 74.1 °F /  23.4 °C 67.6 °F /  19.8 °C 30in /  1015.0hPa NNE 1.7mph /  2.7km/h 3.5mph /  5.6km/h 80% 0in /  0.0mm
02:34 74.1 °F /  23.4 °C 67.6 °F /  19.8 °C 30in /  1015.0hPa NNE 1.8mph /  2.9km/h 3mph /  4.8km/h 80% 0in /  0.0mm
02:39 74.1 °F /  23.4 °C 67.6 °F /  19.8 °C 30in /  1015.0hPa NNE 0.6mph /  1km/h 2.3mph /  3.7km/h 80% 0in /  0.0mm
02:44 74.1 °F /  23.4 °C 67.6 °F /  19.8 °C 30in /  1014.9hPa Calm   2.3mph /  3.7km/h 80% 0in /  0.0mm
02:49 73.9 °F /  23.3 °C 67.5 °F /  19.7 °C 30in /  1014.9hPa Calm   3.6mph /  5.8km/h 80% 0in /  0.0mm
02:54 73.9 °F /  23.3 °C 67.3 °F /  19.6 °C 30in /  1014.9hPa Calm   5.2mph /  8.4km/h 80% 0in /  0.0mm
02:59 73.8 °F /  23.2 °C 67.3 °F /  19.6 °C 30in /  1014.9hPa NO 1.7mph /  2.7km/h 5mph /  8km/h 80.4% 0in /  0.0mm
03:04 73.8 °F /  23.2 °C 67.6 °F /  19.8 °C 30in /  1014.9hPa NO 2.4mph /  3.9km/h 4mph /  6.4km/h 81% 0in /  0.0mm
03:09 73.8 °F /  23.2 °C 67.6 °F /  19.8 °C 30in /  1014.9hPa NO 2.1mph /  3.4km/h 3.1mph /  5km/h 81% 0in /  0.0mm
03:14 73.6 °F /  23.1 °C 67.5 °F /  19.7 °C 30in /  1014.9hPa NO 2mph /  3.2km/h 3.5mph /  5.6km/h 81% 0in /  0.0mm
03:19 73.6 °F /  23.1 °C 67.5 °F /  19.7 °C 30in /  1014.9hPa NO 2mph /  3.2km/h 3.5mph /  5.6km/h 81% 0in /  0.0mm
03:24 73.6 °F /  23.1 °C 67.5 °F /  19.7 °C 30in /  1014.9hPa NO 2mph /  3.2km/h 3.6mph /  5.8km/h 81% 0in /  0.0mm
03:29 73.6 °F /  23.1 °C 67.5 °F /  19.7 °C 30in /  1014.9hPa NO 1.9mph /  3km/h 4mph /  6.4km/h 81% 0in /  0.0mm
03:34 73.4 °F /  23 °C 67.5 °F /  19.7 °C 30in /  1014.9hPa NO 1.8mph /  2.9km/h 3mph /  4.8km/h 81.4% 0in /  0.0mm
03:39 73.4 °F /  23 °C 67.5 °F /  19.7 °C 30in /  1014.9hPa NO 0.7mph /  1.2km/h 2.3mph /  3.7km/h 82% 0in /  0.0mm
03:44 73.2 °F /  22.9 °C 67.3 °F /  19.6 °C 30in /  1014.9hPa Calm   4.6mph /  7.4km/h 81.5% 0in /  0.0mm
03:49 73 °F /  22.8 °C 66.9 °F /  19.4 °C 30in /  1014.9hPa Este 1.3mph /  2.1km/h 5mph /  8km/h 81.2% 0in /  0.0mm
03:54 72.9 °F /  22.7 °C 66.9 °F /  19.4 °C 30in /  1014.9hPa Este 2mph /  3.2km/h 5mph /  8km/h 82% 0in /  0.0mm
03:59 72.7 °F /  22.6 °C 66.7 °F /  19.3 °C 30in /  1014.9hPa Este 2mph /  3.2km/h 4.6mph /  7.4km/h 81.6% 0in /  0.0mm
04:04 72.5 °F /  22.5 °C 66.7 °F /  19.3 °C 30in /  1014.9hPa ESE 2mph /  3.2km/h 5mph /  8km/h 82% 0in /  0.0mm
04:09 72.5 °F /  22.5 °C 66.7 °F /  19.3 °C 30in /  1015.0hPa ESE 2mph /  3.2km/h 3.5mph /  5.6km/h 82% 0in /  0.0mm
04:14 72.5 °F /  22.5 °C 66.7 °F /  19.3 °C 30in /  1015.0hPa ESE 2mph /  3.2km/h 3mph /  4.8km/h 82% 0in /  0.0mm
04:19 72.7 °F /  22.6 °C 66.9 °F /  19.4 °C 30in /  1015.0hPa ESE 0.8mph /  1.3km/h 2mph /  3.2km/h 82% 0in /  0.0mm
04:24 72.5 °F /  22.5 °C 66.7 °F /  19.3 °C 30in /  1015.0hPa Calm   2.3mph /  3.7km/h 81.9% 0in /  0.0mm
04:29 72.7 °F /  22.6 °C 66.7 °F /  19.3 °C 30in /  1014.9hPa Calm   2.3mph /  3.7km/h 82% 0in /  0.0mm
04:34 72.7 °F /  22.6 °C 66.9 °F /  19.4 °C 30in /  1014.9hPa Calm   4mph /  6.4km/h 81.9% 0in /  0.0mm
04:39 72.7 °F /  22.6 °C 66.4 °F /  19.1 °C 30in /  1014.9hPa ONO 1.2mph /  1.9km/h 5.2mph /  8.4km/h 81% 0in /  0.0mm
04:44 72.5 °F /  22.5 °C 66.6 °F /  19.2 °C 30in /  1014.9hPa ONO 2mph /  3.2km/h 2.3mph /  3.7km/h 82% 0in /  0.0mm
04:49 72.3 °F /  22.4 °C 66.6 °F /  19.2 °C 30in /  1014.9hPa ONO 1.6mph /  2.6km/h 2mph /  3.2km/h 82% 0in /  0.0mm
04:54 72.3 °F /  22.4 °C 66.6 °F /  19.2 °C 30in /  1014.9hPa ONO 1.4mph /  2.2km/h 2.9mph /  4.7km/h 82.2% 0in /  0.0mm
04:59 72.3 °F /  22.4 °C 66.9 °F /  19.4 °C 30in /  1014.8hPa ONO 1.4mph /  2.2km/h 3mph /  4.8km/h 83% 0in /  0.0mm
05:04 72.3 °F /  22.4 °C 66.9 °F /  19.4 °C 30in /  1014.8hPa ONO 1.4mph /  2.2km/h 3.5mph /  5.6km/h 83% 0in /  0.0mm
05:09 72.3 °F /  22.4 °C 66.9 °F /  19.4 °C 30in /  1014.8hPa ONO 0.4mph /  0.7km/h 3.5mph /  5.6km/h 83% 0in /  0.0mm
05:14 72.5 °F /  22.5 °C 66.9 °F /  19.4 °C 30in /  1014.8hPa Calm   4.6mph /  7.4km/h 83% 0in /  0.0mm
05:19 72.3 °F /  22.4 °C 66.7 °F /  19.3 °C 30in /  1014.8hPa SO 1.3mph /  2.1km/h 5mph /  8km/h 82.5% 0in /  0.0mm
05:24 72.3 °F /  22.4 °C 66.6 °F /  19.2 °C 30in /  1014.8hPa SO 2mph /  3.2km/h 5mph /  8km/h 82% 0in /  0.0mm
05:29 72.3 °F /  22.4 °C 66.2 °F /  19 °C 30in /  1014.7hPa SSE 2.2mph /  3.6km/h 5.2mph /  8.4km/h 81.1% 0in /  0.0mm
05:34 72.1 °F /  22.3 °C 66 °F /  18.9 °C 30in /  1014.7hPa SE 2.4mph /  3.9km/h 5mph /  8km/h 81% 0in /  0.0mm
05:39 72.1 °F /  22.3 °C 66 °F /  18.9 °C 30in /  1014.7hPa Sur 2.4mph /  3.9km/h 4.7mph /  7.6km/h 81% 0in /  0.0mm
05:44 72.1 °F /  22.3 °C 66 °F /  18.9 °C 30in /  1014.6hPa Sur 2.4mph /  3.9km/h 5mph /  8km/h 81% 0in /  0.0mm
05:49 72 °F /  22.2 °C 65.8 °F /  18.8 °C 30in /  1014.6hPa Sur 2.7mph /  4.4km/h 5mph /  8km/h 81% 0in /  0.0mm
05:54 72 °F /  22.2 °C 65.8 °F /  18.8 °C 30in /  1014.6hPa Sur 2.9mph /  4.7km/h 5mph /  8km/h 81% 0in /  0.0mm
05:59 72 °F /  22.2 °C 65.8 °F /  18.8 °C 30in /  1014.5hPa SSO 2.9mph /  4.7km/h 5.9mph /  9.5km/h 81% 0in /  0.0mm
06:04 72 °F /  22.2 °C 66 °F /  18.9 °C 30in /  1014.5hPa SSO 2.9mph /  4.7km/h 6mph /  9.7km/h 81.4% 0in /  0.0mm
06:09 71.8 °F /  22.1 °C 66 °F /  18.9 °C 30in /  1014.5hPa SSO 3.6mph /  5.8km/h 6mph /  9.7km/h 82% 0in /  0.0mm
06:14 71.8 °F /  22.1 °C 66 °F /  18.9 °C 30in /  1014.5hPa SSO 4mph /  6.5km/h 5.4mph /  8.7km/h 82% 0in /  0.0mm
06:19 71.8 °F /  22.1 °C 66 °F /  18.9 °C 30in /  1014.5hPa SSO 3.8mph /  6.1km/h 6.9mph /  11.1km/h 82% 0in /  0.0mm
06:24 71.6 °F /  22 °C 65.8 °F /  18.8 °C 30in /  1014.5hPa SO 3.6mph /  5.8km/h 7mph /  11.3km/h 82% 0in /  0.0mm
06:29 71.6 °F /  22 °C 65.8 °F /  18.8 °C 30in /  1014.5hPa SSO 3.6mph /  5.8km/h 6mph /  9.7km/h 82% 0in /  0.0mm
06:34 71.4 °F /  21.9 °C 65.7 °F /  18.7 °C 30in /  1014.5hPa Sur 3.6mph /  5.8km/h 6.9mph /  11.1km/h 82% 0in /  0.0mm
06:39 71.2 °F /  21.8 °C 65.5 °F /  18.6 °C 30in /  1014.5hPa Sur 4mph /  6.5km/h 7mph /  11.3km/h 82% 0in /  0.0mm
06:44 71.2 °F /  21.8 °C 65.5 °F /  18.6 °C 30in /  1014.5hPa Sur 4.3mph /  6.9km/h 6.9mph /  11.1km/h 82% 0in /  0.0mm
06:49 71.1 °F /  21.7 °C 65.3 °F /  18.5 °C 30in /  1014.5hPa SSO 4.3mph /  6.9km/h 7mph /  11.3km/h 82.1% 0in /  0.0mm
06:54 71.1 °F /  21.7 °C 65.7 °F /  18.7 °C 30in /  1014.7hPa SSO 4.3mph /  6.9km/h 6.2mph /  10km/h 83% 0in /  0.0mm
06:59 71.1 °F /  21.7 °C 65.5 °F /  18.6 °C 30in /  1014.7hPa SSO 4.1mph /  6.6km/h 6.9mph /  11.1km/h 83% 0in /  0.0mm
07:04 70.9 °F /  21.6 °C 65.5 °F /  18.6 °C 30in /  1014.7hPa SSO 4mph /  6.5km/h 7mph /  11.3km/h 83% 0in /  0.0mm
07:09 70.9 °F /  21.6 °C 65.5 °F /  18.6 °C 30in /  1014.7hPa SSO 4mph /  6.5km/h 6mph /  9.7km/h 83% 0in /  0.0mm
07:14 70.9 °F /  21.6 °C 65.5 °F /  18.6 °C 30in /  1014.7hPa SSO 4mph /  6.5km/h 6mph /  9.7km/h 83% 0in /  0.0mm
07:19 70.9 °F /  21.6 °C 65.3 °F /  18.5 °C 30in /  1014.7hPa SO 4mph /  6.5km/h 6.9mph /  11.1km/h 82.5% 0in /  0.0mm
07:24 70.9 °F /  21.6 °C 65.1 °F /  18.4 °C 30in /  1014.7hPa OSO 4mph /  6.5km/h 7mph /  11.3km/h 82% 0in /  0.0mm
07:29 70.9 °F /  21.6 °C 65.1 °F /  18.4 °C 30in /  1014.7hPa SO 4.2mph /  6.8km/h 7mph /  11.3km/h 82% 0in /  0.0mm
07:34 70.9 °F /  21.6 °C 65.1 °F /  18.4 °C 30in /  1014.7hPa SSO 4.3mph /  6.9km/h 6mph /  9.7km/h 82% 0in /  0.0mm
07:39 70.9 °F /  21.6 °C 65.1 °F /  18.4 °C 30in /  1014.8hPa SSO 3.9mph /  6.2km/h 5.8mph /  9.3km/h 82% 0in /  0.0mm
07:44 70.9 °F /  21.6 °C 65.1 °F /  18.4 °C 30in /  1014.8hPa SSO 3.6mph /  5.8km/h 6.2mph /  10km/h 82% 0in /  0.0mm
07:49 70.9 °F /  21.6 °C 65.1 °F /  18.4 °C 30in /  1014.8hPa SSO 4mph /  6.5km/h 6.9mph /  11.1km/h 82% 0in /  0.0mm
07:54 70.9 °F /  21.6 °C 65.1 °F /  18.4 °C 30in /  1014.9hPa SSO 4.3mph /  6.9km/h 7mph /  11.3km/h 82% 0in /  0.0mm
07:59 71.1 °F /  21.7 °C 65.3 °F /  18.5 °C 30in /  1014.9hPa SO 4mph /  6.4km/h 6mph /  9.7km/h 82% 0in /  0.0mm
08:04 71.2 °F /  21.8 °C 65.1 °F /  18.4 °C 30in /  1014.9hPa Sur 3.6mph /  5.8km/h 5.8mph /  9.3km/h 81.2% 0in /  0.0mm
08:09 71.4 °F /  21.9 °C 65.3 °F /  18.5 °C 30in /  1015.1hPa SSO 3.9mph /  6.2km/h 6mph /  9.7km/h 81% 0in /  0.0mm
08:14 71.4 °F /  21.9 °C 65.3 °F /  18.5 °C 30in /  1015.1hPa SSO 4mph /  6.5km/h 7.4mph /  11.9km/h 81% 0in /  0.0mm
08:19 71.6 °F /  22 °C 65.5 °F /  18.6 °C 30in /  1015.1hPa SSO 4.2mph /  6.7km/h 7mph /  11.3km/h 81% 0in /  0.0mm
08:24 71.8 °F /  22.1 °C 65.7 °F /  18.7 °C 30in /  1015.3hPa SSO 4.3mph /  6.9km/h 7mph /  11.3km/h 81% 0in /  0.0mm
08:29 71.8 °F /  22.1 °C 65.3 °F /  18.5 °C 30in /  1015.3hPa SSO 4.1mph /  6.6km/h 6.9mph /  11.1km/h 80.1% 0in /  0.0mm
08:34 72 °F /  22.2 °C 65.5 °F /  18.6 °C 30in /  1015.3hPa Sur 4mph /  6.5km/h 7mph /  11.3km/h 80% 0in /  0.0mm
08:39 72 °F /  22.2 °C 65.5 °F /  18.6 °C 30in /  1015.3hPa Sur 4.5mph /  7.2km/h 7mph /  11.3km/h 80% 0in /  0.0mm
08:44 72 °F /  22.2 °C 65.5 °F /  18.6 °C 30in /  1015.3hPa SSO 4.7mph /  7.6km/h 7mph /  11.3km/h 80% 0in /  0.0mm
08:49 72.1 °F /  22.3 °C 65.7 °F /  18.7 °C 30in /  1015.3hPa Sur 4.7mph /  7.6km/h 7mph /  11.3km/h 80% 0in /  0.0mm
08:54 72.3 °F /  22.4 °C 65.8 °F /  18.8 °C 30in /  1015.4hPa SSO 4.7mph /  7.6km/h 6.2mph /  10km/h 80% 0in /  0.0mm
08:59 72.5 °F /  22.5 °C 66 °F /  18.9 °C 30in /  1015.4hPa SSO 4.4mph /  7.1km/h 6.9mph /  11.1km/h 80% 0in /  0.0mm
09:04 72.7 °F /  22.6 °C 66.2 °F /  19 °C 30in /  1015.4hPa Sur 4.3mph /  6.9km/h 7mph /  11.3km/h 80% 0in /  0.0mm
09:09 73 °F /  22.8 °C 66.4 °F /  19.1 °C 30in /  1015.6hPa SSE 3.9mph /  6.2km/h 6.2mph /  10km/h 79.7% 0in /  0.0mm
09:14 73.2 °F /  22.9 °C 66.2 °F /  19 °C 30in /  1015.6hPa SSE 3.6mph /  5.8km/h 6mph /  9.7km/h 79% 0in /  0.0mm
09:19 73.4 °F /  23 °C 66.6 °F /  19.2 °C 30in /  1015.6hPa SSE 3.6mph /  5.8km/h 6mph /  9.7km/h 79% 0in /  0.0mm
09:24 73.8 °F /  23.2 °C 66.7 °F /  19.3 °C 30in /  1015.7hPa SSO 3.6mph /  5.8km/h 5mph /  8km/h 79% 0in /  0.0mm
09:29 74.1 °F /  23.4 °C 66.6 °F /  19.2 °C 30in /  1015.7hPa SO 2.8mph /  4.5km/h 5mph /  8km/h 77.5% 0in /  0.0mm
09:34 74.5 °F /  23.6 °C 66.7 °F /  19.3 °C 30in /  1015.7hPa SO 2.4mph /  3.9km/h 5mph /  8km/h 77.3% 0in /  0.0mm
09:39 74.8 °F /  23.8 °C 66.9 °F /  19.4 °C 30in /  1015.8hPa ESE 2.1mph /  3.4km/h 6.2mph /  10km/h 76.5% 0in /  0.0mm
09:44 75.2 °F /  24 °C 67.1 °F /  19.5 °C 30in /  1015.8hPa Este 2mph /  3.2km/h 6mph /  9.7km/h 76% 0in /  0.0mm
09:49 75.6 °F /  24.2 °C 67.3 °F /  19.6 °C 30in /  1015.8hPa ESE 2.6mph /  4.2km/h 5mph /  8km/h 75.1% 0in /  0.0mm
09:54 76.3 °F /  24.6 °C 67.3 °F /  19.6 °C 30in /  1015.8hPa NE 2.9mph /  4.7km/h 5mph /  8km/h 73.7% 0in /  0.0mm
09:59 76.5 °F /  24.7 °C 66.9 °F /  19.4 °C 30in /  1015.8hPa SE 2.5mph /  4.1km/h 5mph /  8km/h 72.1% 0in /  0.0mm
10:04 76.6 °F /  24.8 °C 66.9 °F /  19.4 °C 30in /  1015.8hPa Este 2.4mph /  3.9km/h 5mph /  8km/h 71.8% 0in /  0.0mm
10:09 77.2 °F /  25.1 °C 67.1 °F /  19.5 °C 30in /  1015.8hPa NNE 2.1mph /  3.4km/h 5mph /  8km/h 71.2% 0in /  0.0mm
10:14 77.7 °F /  25.4 °C 67.1 °F /  19.5 °C 30in /  1015.8hPa NE 2mph /  3.2km/h 5mph /  8km/h 70.1% 0in /  0.0mm
10:19 78.3 °F /  25.7 °C 66.9 °F /  19.4 °C 30in /  1015.8hPa NO 2mph /  3.2km/h 5mph /  8km/h 68.4% 0in /  0.0mm
10:24 78.6 °F /  25.9 °C 66.9 °F /  19.4 °C 30in /  1015.9hPa ENE 2mph /  3.2km/h 5mph /  8km/h 67.5% 0in /  0.0mm
10:29 79.2 °F /  26.2 °C 66.4 °F /  19.1 °C 30in /  1015.9hPa NNE 2mph /  3.2km/h 5mph /  8km/h 65.1% 0in /  0.0mm
10:34 79.5 °F /  26.4 °C 66.2 °F /  19 °C 30in /  1015.9hPa ENE 2mph /  3.2km/h 5mph /  8km/h 64% 0in /  0.0mm
10:39 79.7 °F /  26.5 °C 66 °F /  18.9 °C 30in /  1016.0hPa NO 2.3mph /  3.7km/h 5.9mph /  9.5km/h 62.9% 0in /  0.0mm
10:44 79.3 °F /  26.3 °C 65.1 °F /  18.4 °C 30in /  1016.0hPa ONO 2.4mph /  3.9km/h 6mph /  9.7km/h 62% 0in /  0.0mm
10:49 79.2 °F /  26.2 °C 65.5 °F /  18.6 °C 30in /  1016.0hPa NNO 2.8mph /  4.5km/h 6.2mph /  10km/h 62.9% 0in /  0.0mm
10:54 79.2 °F /  26.2 °C 65.5 °F /  18.6 °C 30in /  1016.1hPa ONO 3.1mph /  5km/h 6mph /  9.7km/h 62.9% 0in /  0.0mm
10:59 79.3 °F /  26.3 °C 65.3 °F /  18.5 °C 30in /  1016.1hPa North 3mph /  4.8km/h 8.1mph /  13km/h 62.5% 0in /  0.0mm
11:04 79.5 °F /  26.4 °C 65.7 °F /  18.7 °C 30in /  1016.1hPa NNE 2.9mph /  4.6km/h 8.5mph /  13.7km/h 62.4% 0in /  0.0mm
11:09 79.9 °F /  26.6 °C 65.3 °F /  18.5 °C 30in /  1016.1hPa NNE 3.4mph /  5.4km/h 10.4mph /  16.7km/h 61.2% 0in /  0.0mm
11:14 79.9 °F /  26.6 °C 64.9 °F /  18.3 °C 30in /  1016.1hPa NE 3.6mph /  5.8km/h 10mph /  16.1km/h 60.5% 0in /  0.0mm
11:19 79.7 °F /  26.5 °C 64.8 °F /  18.2 °C 30in /  1016.1hPa NE 4.3mph /  6.9km/h 13.8mph /  22.2km/h 60.3% 0in /  0.0mm
11:24 79.3 °F /  26.3 °C 64.2 °F /  17.9 °C 30in /  1016.1hPa NE 4.7mph /  7.6km/h 14mph /  22.5km/h 60.1% 0in /  0.0mm
11:29 79.3 °F /  26.3 °C 64.4 °F /  18 °C 30in /  1016.0hPa NE 4.4mph /  7.1km/h 7mph /  11.3km/h 60.2% 0in /  0.0mm
11:34 79.9 °F /  26.6 °C 64.8 °F /  18.2 °C 30in /  1016.0hPa ENE 4.3mph /  6.9km/h 7.4mph /  11.9km/h 60% 0in /  0.0mm
11:39 80.2 °F /  26.8 °C 64 °F /  17.8 °C 30in /  1016.0hPa NNE 4.3mph /  6.9km/h 9.2mph /  14.8km/h 58.2% 0in /  0.0mm
11:44 80.4 °F /  26.9 °C 64.2 °F /  17.9 °C 30in /  1015.9hPa NNE 4.3mph /  6.9km/h 9mph /  14.5km/h 57.8% 0in /  0.0mm
11:49 80.8 °F /  27.1 °C 64.8 °F /  18.2 °C 30in /  1015.9hPa ENE 4.3mph /  6.9km/h 8.7mph /  14km/h 58.6% 0in /  0.0mm
11:54 81 °F /  27.2 °C 65.1 °F /  18.4 °C 30in /  1015.9hPa NE 4.3mph /  6.9km/h 9.2mph /  14.8km/h 58.6% 0in /  0.0mm
11:59 81 °F /  27.2 °C 63.9 °F /  17.7 °C 30in /  1015.9hPa NNE 4.3mph /  6.9km/h 11.5mph /  18.5km/h 56.2% 0in /  0.0mm
12:04 80.8 °F /  27.1 °C 62.6 °F /  17 °C 30in /  1015.9hPa NE 4.3mph /  6.9km/h 12mph /  19.3km/h 54.1% 0in /  0.0mm
12:09 80.8 °F /  27.1 °C 63 °F /  17.2 °C 30in /  1015.9hPa NE 5.3mph /  8.6km/h 10mph /  16.1km/h 54.8% 0in /  0.0mm
12:14 81 °F /  27.2 °C 63.9 °F /  17.7 °C 30in /  1015.7hPa Este 5.9mph /  9.5km/h 10.7mph /  17.2km/h 56% 0in /  0.0mm
12:19 81.3 °F /  27.4 °C 64 °F /  17.8 °C 30in /  1015.7hPa NE 5.9mph /  9.5km/h 12.7mph /  20.4km/h 55.8% 0in /  0.0mm
12:24 81.3 °F /  27.4 °C 63.9 °F /  17.7 °C 30in /  1015.7hPa NNE 5.9mph /  9.5km/h 13mph /  20.9km/h 55.7% 0in /  0.0mm
12:29 81.7 °F /  27.6 °C 63.3 °F /  17.4 °C 30in /  1015.6hPa ESE 4.5mph /  7.3km/h 7mph /  11.3km/h 53.9% 0in /  0.0mm
12:34 82.2 °F /  27.9 °C 63.3 °F /  17.4 °C 30in /  1015.6hPa SSE 3.6mph /  5.8km/h 7.4mph /  11.9km/h 52.7% 0in /  0.0mm
12:39 82.8 °F /  28.2 °C 62.2 °F /  16.8 °C 30in /  1015.6hPa NE 3.2mph /  5.1km/h 13.7mph /  22km/h 50.1% 0in /  0.0mm
12:44 82.9 °F /  28.3 °C 61.5 °F /  16.4 °C 30in /  1015.3hPa NNE 2.9mph /  4.7km/h 14mph /  22.5km/h 48.5% 0in /  0.0mm
12:49 82.9 °F /  28.3 °C 60.8 °F /  16 °C 30in /  1015.3hPa NE 5mph /  8.1km/h 13mph /  20.9km/h 47.3% 0in /  0.0mm
12:54 82.9 °F /  28.3 °C 60.1 °F /  15.6 °C 30in /  1015.3hPa North 6.2mph /  10km/h 13mph /  20.9km/h 46% 0in /  0.0mm
12:59 82.9 °F /  28.3 °C 59.7 °F /  15.4 °C 30in /  1015.2hPa North 5.7mph /  9.1km/h 12.7mph /  20.4km/h 45.4% 0in /  0.0mm
13:04 83.1 °F /  28.4 °C 59.9 °F /  15.5 °C 30in /  1015.2hPa North 5.4mph /  8.7km/h 13mph /  20.9km/h 45.6% 0in /  0.0mm
13:09 83.5 °F /  28.6 °C 61 °F /  16.1 °C 30in /  1015.2hPa NNE 5.3mph /  8.5km/h 10.4mph /  16.7km/h 46.8% 0in /  0.0mm
13:14 83.7 °F /  28.7 °C 60.8 °F /  16 °C 30in /  1015.1hPa North 5.2mph /  8.4km/h 8mph /  12.9km/h 46% 0in /  0.0mm
13:19 84.2 °F /  29 °C 58.5 °F /  14.7 °C 30in /  1015.1hPa NNE 4.2mph /  6.7km/h 9.2mph /  14.8km/h 41.8% 0in /  0.0mm
13:24 84.6 °F /  29.2 °C 59.2 °F /  15.1 °C 30in /  1015.1hPa NNE 3.6mph /  5.8km/h 9mph /  14.5km/h 42.4% 0in /  0.0mm
13:29 84.9 °F /  29.4 °C 60.6 °F /  15.9 °C 30in /  1014.8hPa ENE 4.3mph /  6.9km/h 9.7mph /  15.6km/h 44.1% 0in /  0.0mm
13:34 84.9 °F /  29.4 °C 60.8 °F /  16 °C 30in /  1014.8hPa NE 4.7mph /  7.6km/h 12.5mph /  20.1km/h 44.4% 0in /  0.0mm
13:39 84.9 °F /  29.4 °C 60.8 °F /  16 °C 30in /  1014.8hPa NNE 5.6mph /  9km/h 13mph /  20.9km/h 44.2% 0in /  0.0mm
13:44 85.3 °F /  29.6 °C 60.6 °F /  15.9 °C 30in /  1014.4hPa NNO 6.2mph /  10km/h 16.1mph /  25.9km/h 43.4% 0in /  0.0mm
13:49 85.3 °F /  29.6 °C 59.9 °F /  15.5 °C 30in /  1014.4hPa NE 5.7mph /  9.1km/h 16mph /  25.7km/h 42.5% 0in /  0.0mm
13:54 85.3 °F /  29.6 °C 61 °F /  16.1 °C 30in /  1014.4hPa NE 5.4mph /  8.7km/h 13mph /  20.9km/h 43.9% 0in /  0.0mm
13:59 86 °F /  30 °C 61.7 °F /  16.5 °C 30in /  1014.4hPa NNE 5mph /  8km/h 10.7mph /  17.2km/h 44.3% 0in /  0.0mm
14:04 86 °F /  30 °C 61.7 °F /  16.5 °C 30in /  1014.4hPa NNO 4.7mph /  7.6km/h 11mph /  17.7km/h 44.3% 0in /  0.0mm
14:09 85.6 °F /  29.8 °C 61.2 °F /  16.2 °C 30in /  1014.4hPa NNO 5.4mph /  8.7km/h 8mph /  12.9km/h 43.9% 0in /  0.0mm
14:14 85.6 °F /  29.8 °C 61.7 °F /  16.5 °C 30in /  1014.3hPa ENE 5.9mph /  9.5km/h 10.2mph /  16.4km/h 44.7% 0in /  0.0mm
14:19 85.8 °F /  29.9 °C 61.3 °F /  16.3 °C 30in /  1014.3hPa NE 5.2mph /  8.3km/h 12.7mph /  20.4km/h 44% 0in /  0.0mm
14:24 86.2 °F /  30.1 °C 61.2 °F /  16.2 °C 30in /  1014.3hPa ENE 4.7mph /  7.6km/h 13mph /  20.9km/h 43% 0in /  0.0mm
14:29 86.5 °F /  30.3 °C 61 °F /  16.1 °C 29.9in /  1014.1hPa NE 4.5mph /  7.2km/h 13.7mph /  22km/h 42.4% 0in /  0.0mm
14:34 86.9 °F /  30.5 °C 60.8 °F /  16 °C 29.9in /  1014.1hPa Este 4.3mph /  6.9km/h 14mph /  22.5km/h 41.7% 0in /  0.0mm
14:39 87.1 °F /  30.6 °C 61.3 °F /  16.3 °C 29.9in /  1014.1hPa ENE 5.5mph /  8.8km/h 14mph /  22.5km/h 42.2% 0in /  0.0mm
14:44 87.3 °F /  30.7 °C 60.8 °F /  16 °C 29.9in /  1013.8hPa NNE 6.2mph /  10km/h 14mph /  22.5km/h 41.3% 0in /  0.0mm
14:49 87.3 °F /  30.7 °C 60.8 °F /  16 °C 29.9in /  1013.8hPa North 6mph /  9.7km/h 13.8mph /  22.2km/h 41.4% 0in /  0.0mm
14:54 87.3 °F /  30.7 °C 60.6 °F /  15.9 °C 29.9in /  1013.8hPa NE 5.9mph /  9.5km/h 14mph /  22.5km/h 40.9% 0in /  0.0mm
14:59 87.3 °F /  30.7 °C 59.5 °F /  15.3 °C 29.9in /  1013.7hPa NE 6.6mph /  10.6km/h 12mph /  19.3km/h 39.3% 0in /  0.0mm
15:04 87.4 °F /  30.8 °C 59.2 °F /  15.1 °C 29.9in /  1013.7hPa NNE 6.9mph /  11.1km/h 13.8mph /  22.2km/h 38.8% 0in /  0.0mm
15:09 87.4 °F /  30.8 °C 58.6 °F /  14.8 °C 29.9in /  1013.7hPa NNE 6.9mph /  11.1km/h 14mph /  22.5km/h 37.9% 0in /  0.0mm
15:14 87.8 °F /  31 °C 60.8 °F /  16 °C 29.9in /  1013.5hPa NE 6.9mph /  11.1km/h 13.8mph /  22.2km/h 40.5% 0in /  0.0mm
15:19 87.8 °F /  31 °C 61 °F /  16.1 °C 29.9in /  1013.5hPa NE 6.9mph /  11.1km/h 18.4mph /  29.6km/h 40.8% 0in /  0.0mm
15:24 87.4 °F /  30.8 °C 60.6 °F /  15.9 °C 29.9in /  1013.5hPa NE 6.9mph /  11.1km/h 18mph /  29km/h 40.6% 0in /  0.0mm
15:29 87.6 °F /  30.9 °C 60.4 °F /  15.8 °C 29.9in /  1013.3hPa NE 8.3mph /  13.4km/h 17mph /  27.4km/h 40.2% 0in /  0.0mm
15:34 87.8 °F /  31 °C 60.3 °F /  15.7 °C 29.9in /  1013.3hPa NE 9.2mph /  14.8km/h 15.9mph /  25.6km/h 39.8% 0in /  0.0mm
15:39 87.6 °F /  30.9 °C 59.5 °F /  15.3 °C 29.9in /  1013.4hPa ENE 8.8mph /  14.1km/h 16.1mph /  25.9km/h 38.9% 0in /  0.0mm
15:44 87.4 °F /  30.8 °C 58.8 °F /  14.9 °C 29.9in /  1013.4hPa NE 8.5mph /  13.7km/h 16.3mph /  26.2km/h 38.2% 0in /  0.0mm
15:49 87.3 °F /  30.7 °C 58.1 °F /  14.5 °C 29.9in /  1013.4hPa NE 8.9mph /  14.4km/h 18.5mph /  29.8km/h 37.2% 0in /  0.0mm
15:54 87.3 °F /  30.7 °C 57.7 °F /  14.3 °C 29.9in /  1013.4hPa NE 9.2mph /  14.8km/h 19mph /  30.6km/h 36.9% 0in /  0.0mm
15:59 87.4 °F /  30.8 °C 57.9 °F /  14.4 °C 29.9in /  1013.2hPa NE 8.4mph /  13.6km/h 16.1mph /  25.9km/h 37% 0in /  0.0mm
16:04 87.4 °F /  30.8 °C 57.6 °F /  14.2 °C 29.9in /  1013.2hPa NE 8.1mph /  13km/h 17.3mph /  27.8km/h 36.5% 0in /  0.0mm
16:09 87.4 °F /  30.8 °C 56.8 °F /  13.8 °C 29.9in /  1013.2hPa NE 9.3mph /  14.9km/h 20.8mph /  33.5km/h 35.5% 0in /  0.0mm
16:14 87.1 °F /  30.6 °C 56.1 °F /  13.4 °C 29.9in /  1013.0hPa NE 10mph /  16.1km/h 21mph /  33.8km/h 35% 0in /  0.0mm
16:19 86.7 °F /  30.4 °C 55.9 °F /  13.3 °C 29.9in /  1013.0hPa NE 10.9mph /  17.5km/h 19mph /  30.6km/h 35.3% 0in /  0.0mm
16:24 87.3 °F /  30.7 °C 55.9 °F /  13.3 °C 29.9in /  1013.0hPa ENE 11.4mph /  18.4km/h 17mph /  27.4km/h 34.6% 0in /  0.0mm
16:29 87.6 °F /  30.9 °C 54.7 °F /  12.6 °C 29.9in /  1013.0hPa NE 9.6mph /  15.5km/h 17.3mph /  27.8km/h 32.7% 0in /  0.0mm
16:34 87.8 °F /  31 °C 54.7 °F /  12.6 °C 29.9in /  1013.0hPa ENE 8.5mph /  13.7km/h 14.5mph /  23.3km/h 32.5% 0in /  0.0mm
16:39 87.8 °F /  31 °C 54.1 °F /  12.3 °C 29.9in /  1013.0hPa ENE 7.8mph /  12.6km/h 18.5mph /  29.8km/h 31.7% 0in /  0.0mm
16:44 87.6 °F /  30.9 °C 54 °F /  12.2 °C 29.9in /  1013.0hPa ENE 7.4mph /  11.9km/h 19mph /  30.6km/h 31.9% 0in /  0.0mm
16:49 87.6 °F /  30.9 °C 54.1 °F /  12.3 °C 29.9in /  1013.0hPa NE 8.1mph /  13km/h 17.5mph /  28.2km/h 31.9% 0in /  0.0mm
16:54 87.6 °F /  30.9 °C 54.7 °F /  12.6 °C 29.9in /  1013.0hPa NE 8.5mph /  13.7km/h 17.3mph /  27.8km/h 32.6% 0in /  0.0mm
16:59 87.6 °F /  30.9 °C 55.2 °F /  12.9 °C 29.9in /  1012.8hPa ENE 8.6mph /  13.9km/h 17mph /  27.4km/h 33.3% 0in /  0.0mm
17:04 87.6 °F /  30.9 °C 55.8 °F /  13.2 °C 29.9in /  1012.8hPa NE 8.7mph /  14km/h 16.1mph /  25.9km/h 33.9% 0in /  0.0mm
17:09 87.6 °F /  30.9 °C 56.3 °F /  13.5 °C 29.9in /  1012.9hPa NE 8.7mph /  14km/h 17.8mph /  28.6km/h 34.6% 0in /  0.0mm
17:14 87.4 °F /  30.8 °C 55.9 °F /  13.3 °C 29.9in /  1012.9hPa NE 8.7mph /  14km/h 18mph /  29km/h 34.5% 0in /  0.0mm
17:19 87.6 °F /  30.9 °C 56.1 °F /  13.4 °C 29.9in /  1012.9hPa NE 9mph /  14.5km/h 16mph /  25.7km/h 34.4% 0in /  0.0mm
17:24 87.6 °F /  30.9 °C 56.5 °F /  13.6 °C 29.9in /  1012.9hPa NE 9.2mph /  14.8km/h 19.6mph /  31.5km/h 34.9% 0in /  0.0mm
17:29 87.3 °F /  30.7 °C 56.3 °F /  13.5 °C 29.9in /  1012.8hPa NE 9.7mph /  15.6km/h 20mph /  32.2km/h 35% 0in /  0.0mm
17:34 87.4 °F /  30.8 °C 56.1 °F /  13.4 °C 29.9in /  1012.8hPa NNE 10mph /  16.1km/h 15mph /  24.1km/h 34.5% 0in /  0.0mm
17:39 87.4 °F /  30.8 °C 55.8 °F /  13.2 °C 29.9in /  1012.8hPa NE 9.2mph /  14.8km/h 15mph /  24.1km/h 34.2% 0in /  0.0mm
17:44 87.4 °F /  30.8 °C 56.5 °F /  13.6 °C 29.9in /  1012.6hPa NE 8.7mph /  14km/h 16.3mph /  26.2km/h 35% 0in /  0.0mm
17:49 87.4 °F /  30.8 °C 55.9 °F /  13.3 °C 29.9in /  1012.6hPa NE 8.6mph /  13.8km/h 16mph /  25.7km/h 34.5% 0in /  0.0mm
17:54 87.4 °F /  30.8 °C 56.3 °F /  13.5 °C 29.9in /  1012.6hPa NE 8.5mph /  13.7km/h 15.2mph /  24.5km/h 35% 0in /  0.0mm
17:59 87.3 °F /  30.7 °C 56.3 °F /  13.5 °C 29.9in /  1012.6hPa NE 9.3mph /  14.9km/h 16.1mph /  25.9km/h 35% 0in /  0.0mm
18:04 87.4 °F /  30.8 °C 55.8 °F /  13.2 °C 29.9in /  1012.6hPa NE 9.7mph /  15.6km/h 16.1mph /  25.9km/h 34.3% 0in /  0.0mm
18:09 87.3 °F /  30.7 °C 55.9 °F /  13.3 °C 29.9in /  1012.6hPa NE 9.1mph /  14.6km/h 16.3mph /  26.2km/h 34.6% 0in /  0.0mm
18:14 87.1 °F /  30.6 °C 56.5 °F /  13.6 °C 29.9in /  1012.5hPa NE 8.7mph /  14km/h 16.1mph /  25.9km/h 35.5% 0in /  0.0mm
18:19 87.1 °F /  30.6 °C 57.6 °F /  14.2 °C 29.9in /  1012.5hPa NE 9mph /  14.5km/h 16mph /  25.7km/h 36.9% 0in /  0.0mm
18:24 87.1 °F /  30.6 °C 57.2 °F /  14 °C 29.9in /  1012.5hPa NE 9.2mph /  14.8km/h 16.1mph /  25.9km/h 36.3% 0in /  0.0mm
18:29 87.3 °F /  30.7 °C 57.2 °F /  14 °C 29.9in /  1012.4hPa ENE 7.8mph /  12.5km/h 14mph /  22.5km/h 36.2% 0in /  0.0mm
18:34 87.1 °F /  30.6 °C 57.7 °F /  14.3 °C 29.9in /  1012.4hPa ENE 6.9mph /  11.1km/h 13mph /  20.9km/h 37.1% 0in /  0.0mm
18:39 86.9 °F /  30.5 °C 57.4 °F /  14.1 °C 29.9in /  1012.4hPa Este 7.6mph /  12.3km/h 13mph /  20.9km/h 37% 0in /  0.0mm
18:44 86.9 °F /  30.5 °C 57.4 °F /  14.1 °C 29.9in /  1012.4hPa ESE 8.1mph /  13km/h 13mph /  20.9km/h 36.8% 0in /  0.0mm
18:49 86.7 °F /  30.4 °C 56.7 °F /  13.7 °C 29.9in /  1012.4hPa Este 7.4mph /  11.9km/h 12.7mph /  20.4km/h 36.1% 0in /  0.0mm
18:54 86.5 °F /  30.3 °C 56.8 °F /  13.8 °C 29.9in /  1012.4hPa Este 6.9mph /  11.1km/h 13mph /  20.9km/h 36.5% 0in /  0.0mm
18:59 86.5 °F /  30.3 °C 56.7 °F /  13.7 °C 29.9in /  1012.4hPa ESE 6.6mph /  10.6km/h 13mph /  20.9km/h 36.4% 0in /  0.0mm
19:04 86.4 °F /  30.2 °C 56.5 °F /  13.6 °C 29.9in /  1012.4hPa ESE 6.4mph /  10.3km/h 12mph /  19.3km/h 36.3% 0in /  0.0mm
19:09 86.4 °F /  30.2 °C 57 °F /  13.9 °C 29.9in /  1012.4hPa Este 6.7mph /  10.8km/h 13mph /  20.9km/h 37% 0in /  0.0mm
19:14 86 °F /  30 °C 57.6 °F /  14.2 °C 29.9in /  1012.3hPa ESE 6.9mph /  11.1km/h 17.5mph /  28.2km/h 38.2% 0in /  0.0mm
19:19 85.6 °F /  29.8 °C 57.2 °F /  14 °C 29.9in /  1012.3hPa ESE 7.9mph /  12.7km/h 17mph /  27.4km/h 38.1% 0in /  0.0mm
19:24 85.6 °F /  29.8 °C 56.8 °F /  13.8 °C 29.9in /  1012.3hPa SE 8.5mph /  13.7km/h 17.3mph /  27.8km/h 37.6% 0in /  0.0mm
19:29 85.5 °F /  29.7 °C 57.2 °F /  14 °C 29.9in /  1012.3hPa SE 8.6mph /  13.9km/h 17mph /  27.4km/h 38.2% 0in /  0.0mm
19:34 84.9 °F /  29.4 °C 57.2 °F /  14 °C 29.9in /  1012.3hPa SE 8.7mph /  14km/h 16.1mph /  25.9km/h 38.9% 0in /  0.0mm
19:39 84.7 °F /  29.3 °C 57.9 °F /  14.4 °C 29.9in /  1012.4hPa SE 9.6mph /  15.5km/h 15.2mph /  24.5km/h 40.4% 0in /  0.0mm
19:44 84.6 °F /  29.2 °C 59.2 °F /  15.1 °C 29.9in /  1012.4hPa ESE 10.2mph /  16.4km/h 15.6mph /  25.1km/h 42.3% 0in /  0.0mm
19:49 84.4 °F /  29.1 °C 59.5 °F /  15.3 °C 29.9in /  1012.4hPa ESE 9.9mph /  15.9km/h 17.3mph /  27.8km/h 43.1% 0in /  0.0mm
19:54 84.4 °F /  29.1 °C 59.4 °F /  15.2 °C 29.9in /  1012.4hPa SE 9.7mph /  15.6km/h 17mph /  27.4km/h 43% 0in /  0.0mm
19:59 84.2 °F /  29 °C 59.9 °F /  15.5 °C 29.9in /  1012.4hPa ESE 8.4mph /  13.5km/h 13mph /  20.9km/h 43.9% 0in /  0.0mm
20:04 83.8 °F /  28.8 °C 59.2 °F /  15.1 °C 29.9in /  1012.4hPa SE 7.6mph /  12.2km/h 15.2mph /  24.5km/h 43.3% 0in /  0.0mm
20:09 83.5 °F /  28.6 °C 59.5 °F /  15.3 °C 29.9in /  1012.6hPa ESE 8.9mph /  14.4km/h 17.3mph /  27.8km/h 44.5% 0in /  0.0mm
20:14 83.3 °F /  28.5 °C 59.5 °F /  15.3 °C 29.9in /  1012.6hPa ESE 9.7mph /  15.6km/h 17mph /  27.4km/h 44.8% 0in /  0.0mm
20:19 83.1 °F /  28.4 °C 60.1 °F /  15.6 °C 29.9in /  1012.6hPa ESE 9.1mph /  14.6km/h 14mph /  22.5km/h 45.6% 0in /  0.0mm
20:24 83.1 °F /  28.4 °C 60.1 °F /  15.6 °C 29.9in /  1012.8hPa ESE 8.7mph /  14km/h 13mph /  20.9km/h 46% 0in /  0.0mm
20:29 82.9 °F /  28.3 °C 60.3 °F /  15.7 °C 29.9in /  1012.8hPa ESE 8mph /  12.9km/h 13mph /  20.9km/h 46.6% 0in /  0.0mm
20:34 82.8 °F /  28.2 °C 61.3 °F /  16.3 °C 29.9in /  1012.8hPa ESE 7.6mph /  12.2km/h 13mph /  20.9km/h 48.5% 0in /  0.0mm
20:39 82.6 °F /  28.1 °C 62.4 °F /  16.9 °C 29.9in /  1012.8hPa ESE 7.5mph /  12km/h 12mph /  19.3km/h 50.5% 0in /  0.0mm
20:44 82.2 °F /  27.9 °C 62.6 °F /  17 °C 29.9in /  1012.8hPa ESE 7.4mph /  11.9km/h 13mph /  20.9km/h 51.6% 0in /  0.0mm
20:46 81.9 °F /  27.7 °C 62.4 °F /  16.9 °C 29.9in /  1012.8hPa Este 7.4mph /  11.9km/h 13mph /  20.9km/h 52% 0in /  0.0mm
Murcia-Puente Tocinos, España
Compliments of Weather Underground - 2.75 mb

La estación de MeteoMurcia.com, publica sus datos en los siguientes proyectos:

Weather Underground PWS IMURCIAP2 Meteoclimatic www.awekas.at

W3Counter
Web Analytics